Fernandes Tourinho, Brazil
Current Conditions -  °F | °C
As of 12:00 PM on Sunday 25 Jan 2015 (Local Time) from SBLS Reporting Station
Broken Clouds Broken Clouds  
Wind Chill: 79°   Ceiling: 3000
Heat Index: 80°   Visibility: 6mi
Dew Point: 63°   Wind: 3mph
Humidity: 57%   Direction: 80°E
Pressure: 30.12"   Gusts: NA
Location:  19.15°S, 42.08°W
Report Text: SBLS 251400Z 08003KT 9999 BKN030 26/17 Q1020
Loading
Personal Weather Stations






























Interactive Weather Map New forecast layout! Learn more

10-Day Weather Forecast

Advertisements
Track Severe Weather on mobile